Time;durP1;ratioP1;P1;durP2;ratioP2;P2;SDS_P1;SDS_P2;PMS_P1;PMS_P2;Temp;Humidity;BMP_temperature;BMP_pressure;BME280_temperature;BME280_humidity;BME280_pressure;Samples;Min_cycle;Max_cycle;Signal;HPM_P1;HPM_P2
2023/12/06 00:00:49;;;;;;;79.95;36.92;;;;;;;5.60;67.23;100705.50;5083738;27;98885;-78
2023/12/06 00:03:15;;;;;;;79.45;37.33;;;;;;;5.35;67.86;100704.13;5077142;27;97585;-79
2023/12/06 00:05:42;;;;;;;81.68;38.38;;;;;;;5.58;67.26;100696.78;5083471;27;96788;-77
2023/12/06 00:08:09;;;;;;;86.22;38.88;;;;;;;5.80;67.14;100708.66;5083775;27;99321;-78
2023/12/06 00:10:36;;;;;;;74.78;37.15;;;;;;;5.83;66.42;100702.50;5088687;27;101693;-78
2023/12/06 00:13:02;;;;;;;80.70;37.67;;;;;;;5.67;67.85;100707.13;5082730;27;97435;-79
2023/12/06 00:15:28;;;;;;;78.15;37.20;;;;;;;5.98;66.76;100702.25;5085023;27;97083;-78
2023/12/06 00:17:55;;;;;;;79.15;36.85;;;;;;;6.22;65.41;100703.59;5086705;27;100883;-79
2023/12/06 00:20:21;;;;;;;77.45;36.97;;;;;;;6.08;65.97;100698.59;5087514;27;98831;-80
2023/12/06 00:22:48;;;;;;;81.50;35.85;;;;;;;5.77;66.65;100697.38;5091137;27;96771;-79
2023/12/06 00:25:15;;;;;;;81.13;36.83;;;;;;;6.13;66.01;100701.13;5089213;27;96877;-79
2023/12/06 00:27:42;;;;;;;77.85;36.20;;;;;;;6.19;66.10;100695.75;5090643;27;99144;-79
2023/12/06 00:30:09;;;;;;;79.30;38.00;;;;;;;6.17;65.45;100698.41;5086124;27;98288;-78
2023/12/06 00:32:36;;;;;;;78.82;37.97;;;;;;;6.39;65.13;100693.63;5087903;27;96808;-78
2023/12/06 00:35:02;;;;;;;81.45;37.65;;;;;;;6.33;64.93;100702.50;5079507;27;97797;-78
2023/12/06 00:37:29;;;;;;;78.20;38.08;;;;;;;6.20;65.45;100708.00;5082661;27;99850;-78
2023/12/06 00:39:55;;;;;;;81.70;37.28;;;;;;;6.16;65.43;100695.84;5085525;27;99286;-78
2023/12/06 00:42:23;;;;;;;77.20;36.13;;;;;;;6.16;65.07;100694.09;5086015;27;97911;-78
2023/12/06 00:44:49;;;;;;;78.65;36.72;;;;;;;5.98;66.04;100697.88;5090140;27;96727;-77
2023/12/06 00:47:15;;;;;;;75.60;37.17;;;;;;;6.18;65.98;100691.41;5088599;27;98536;-77
2023/12/06 00:49:44;;;;;;;75.47;35.60;;;;;;;6.09;66.01;100696.84;5082093;27;98883;-77
2023/12/06 00:52:10;;;;;;;78.18;38.40;;;;;;;6.00;66.35;100703.09;5087752;27;99048;-76
2023/12/06 00:54:36;;;;;;;80.85;34.47;;;;;;;5.67;67.43;100701.00;5085279;27;96858;-77
2023/12/06 00:57:03;;;;;;;79.53;37.88;;;;;;;5.76;67.69;100706.13;5074233;27;102276;-77
2023/12/06 00:59:31;;;;;;;73.88;36.75;;;;;;;5.80;67.28;100706.03;5086213;27;101138;-76
2023/12/06 01:01:57;;;;;;;75.25;35.72;;;;;;;5.63;68.22;100700.22;5082802;27;96762;-77
2023/12/06 01:04:23;;;;;;;74.80;36.05;;;;;;;5.89;67.37;100711.16;5079346;27;97227;-78
2023/12/06 01:06:50;;;;;;;86.03;37.70;;;;;;;5.86;67.18;100705.94;5082298;27;98928;-77
2023/12/06 01:09:16;;;;;;;78.00;35.80;;;;;;;5.92;67.24;100705.00;5082105;27;97660;-79
2023/12/06 01:11:43;;;;;;;77.38;35.63;;;;;;;6.05;66.64;100716.13;5084064;27;96764;-79
2023/12/06 01:14:09;;;;;;;75.07;35.25;;;;;;;5.85;67.72;100716.44;5083164;27;97314;-79
2023/12/06 01:16:37;;;;;;;80.05;37.35;;;;;;;5.71;67.71;100721.91;5076070;27;98935;-79
2023/12/06 01:19:03;;;;;;;76.82;35.55;;;;;;;5.97;67.63;100713.66;5085560;27;101745;-78
2023/12/06 01:21:29;;;;;;;75.68;35.38;;;;;;;5.97;66.97;100714.50;5085866;27;97128;-78
2023/12/06 01:23:56;;;;;;;78.20;36.97;;;;;;;5.87;67.54;100717.28;5079890;27;96754;-78
2023/12/06 01:26:23;;;;;;;74.63;36.17;;;;;;;5.91;67.73;100716.38;5079754;27;98887;-79
2023/12/06 01:28:50;;;;;;;75.75;36.10;;;;;;;5.91;67.82;100722.47;5085087;27;98821;-79
2023/12/06 01:31:16;;;;;;;75.68;35.13;;;;;;;5.82;67.65;100721.75;5082650;27;97015;-78
2023/12/06 01:33:44;;;;;;;78.60;37.85;;;;;;;5.91;68.19;100717.22;5080124;27;97196;-78
2023/12/06 01:36:11;;;;;;;79.63;36.97;;;;;;;5.95;68.23;100725.94;5082527;27;99393;-78
2023/12/06 01:38:37;;;;;;;77.25;36.25;;;;;;;6.13;68.01;100730.00;5091483;27;100020;-78
2023/12/06 01:41:04;;;;;;;74.28;36.97;;;;;;;5.91;68.03;100722.47;5082054;27;98642;-79
2023/12/06 01:43:30;;;;;;;80.47;38.05;;;;;;;5.48;69.64;100724.91;5073880;27;97789;-79
2023/12/06 01:45:57;;;;;;;73.28;37.03;;;;;;;5.48;70.57;100721.41;5079791;27;100324;-78
2023/12/06 01:48:24;;;;;;;81.03;37.00;;;;;;;5.90;69.00;100726.03;5084843;27;98818;-79
2023/12/06 01:50:52;;;;;;;73.05;34.45;;;;;;;5.80;69.64;100721.78;5085125;27;97189;-79
2023/12/06 01:53:18;;;;;;;81.40;37.90;;;;;;;5.78;68.86;100720.91;5089211;27;96871;-78
2023/12/06 01:55:48;;;;;;;76.53;35.50;;;;;;;5.86;69.16;100724.28;5089066;27;98929;-78
2023/12/06 01:58:15;;;;;;;83.28;36.85;;;;;;;5.86;68.90;100723.41;5077211;27;99382;-78
2023/12/06 02:00:41;;;;;;;75.43;36.70;;;;;;;5.81;68.94;100731.38;5086663;27;97101;-78
2023/12/06 02:03:08;;;;;;;75.82;36.03;;;;;;;5.76;69.23;100727.97;5087817;27;98719;-78
2023/12/06 02:05:35;;;;;;;79.40;37.05;;;;;;;5.83;68.88;100721.72;5085984;27;99459;-79
2023/12/06 02:08:03;;;;;;;73.85;35.63;;;;;;;5.67;69.87;100727.22;5079091;27;97638;-79
2023/12/06 02:10:30;;;;;;;81.38;38.65;;;;;;;5.95;68.80;100721.56;5088145;27;96757;-80
2023/12/06 02:12:56;;;;;;;78.15;37.28;;;;;;;5.70;69.82;100724.56;5090823;27;98487;-81
2023/12/06 02:15:23;;;;;;;76.57;35.58;;;;;;;5.86;69.31;100716.41;5081013;27;97852;-80
2023/12/06 02:17:50;;;;;;;81.07;37.55;;;;;;;5.99;69.14;100709.25;5083564;27;100698;-80
2023/12/06 02:20:17;;;;;;;84.63;37.03;;;;;;;5.99;69.52;100711.88;5087106;27;97499;-78
2023/12/06 02:22:43;;;;;;;84.65;39.38;;;;;;;5.90;69.88;100705.03;5075521;27;97386;-78
2023/12/06 02:25:12;;;;;;;79.18;35.88;;;;;;;6.12;68.71;100707.25;5089171;27;99072;-79
2023/12/06 02:27:41;;;;;;;80.70;37.55;;;;;;;6.03;68.99;100708.31;5079525;27;98787;-78
2023/12/06 02:30:08;;;;;;;82.47;36.55;;;;;;;6.08;68.43;100713.47;5080013;27;96739;-79
2023/12/06 02:32:34;;;;;;;78.90;35.38;;;;;;;6.40;67.84;100708.50;5081654;27;96697;-78
2023/12/06 02:35:03;;;;;;;82.72;37.00;;;;;;;6.56;67.23;100709.94;5078267;27;99229;-78
2023/12/06 02:37:30;;;;;;;82.32;36.65;;;;;;;6.41;67.08;100715.47;5086420;27;96747;-78
2023/12/06 02:39:57;;;;;;;77.07;35.78;;;;;;;6.08;68.55;100711.72;5079130;27;96758;-78
2023/12/06 02:42:25;;;;;;;75.45;35.97;;;;;;;6.07;68.99;100716.97;5075095;27;96847;-78
2023/12/06 02:44:51;;;;;;;70.93;34.92;;;;;;;6.32;67.46;100718.25;5079526;27;98783;-78
2023/12/06 02:47:18;;;;;;;76.80;36.15;;;;;;;6.10;68.63;100722.19;5084388;27;98897;-77
2023/12/06 02:49:44;;;;;;;78.75;34.90;;;;;;;6.03;69.09;100715.31;5080574;27;97184;-77
2023/12/06 02:52:13;;;;;;;76.95;35.92;;;;;;;5.94;69.87;100722.44;5079380;27;96929;-78
2023/12/06 02:54:40;;;;;;;72.88;35.78;;;;;;;6.00;69.38;100709.22;5073325;27;99228;-79
2023/12/06 02:57:06;;;;;;;75.40;35.60;;;;;;;6.12;69.16;100709.88;5079093;27;98753;-79
2023/12/06 02:59:34;;;;;;;82.55;37.63;;;;;;;5.98;69.88;100708.38;5080500;27;97278;-79
2023/12/06 03:02:00;;;;;;;75.20;35.25;;;;;;;5.87;69.47;100699.84;5078928;27;97214;-79
2023/12/06 03:04:27;;;;;;;81.22;37.00;;;;;;;5.98;69.57;100697.00;5085091;27;99059;-79
2023/12/06 03:06:53;;;;;;;76.68;37.30;;;;;;;5.95;70.22;100699.72;5083120;27;97543;-79
2023/12/06 03:09:19;;;;;;;80.05;35.65;;;;;;;5.96;69.93;100702.31;5086061;27;96867;-79
2023/12/06 03:11:46;;;;;;;77.78;35.78;;;;;;;6.12;69.80;100700.25;5086070;27;97033;-80
2023/12/06 03:14:12;;;;;;;76.85;37.08;;;;;;;6.12;69.92;100700.25;5087974;27;98222;-79
2023/12/06 03:16:40;;;;;;;81.70;37.38;;;;;;;6.03;69.88;100694.34;5088898;27;102067;-80
2023/12/06 03:19:06;;;;;;;76.18;36.08;;;;;;;6.23;69.77;100687.84;5085527;27;97375;-79
2023/12/06 03:21:33;;;;;;;74.60;36.40;;;;;;;6.23;69.53;100692.22;5072190;27;96906;-78
2023/12/06 03:23:59;;;;;;;76.88;35.25;;;;;;;6.05;70.45;100687.28;5081714;27;99491;-77
2023/12/06 03:26:25;;;;;;;73.85;35.53;;;;;;;5.79;71.06;100692.94;5087169;27;98980;-77
2023/12/06 03:28:52;;;;;;;81.82;36.90;;;;;;;5.83;70.97;100697.25;5078194;27;96871;-77
2023/12/06 03:31:18;;;;;;;75.78;35.38;;;;;;;5.96;70.74;100694.44;5079594;27;97720;-79
2023/12/06 03:33:46;;;;;;;72.30;34.65;;;;;;;6.16;70.13;100680.09;5088897;27;99372;-79
2023/12/06 03:36:13;;;;;;;76.72;35.20;;;;;;;6.10;70.31;100688.94;5085003;27;98955;-79
2023/12/06 03:38:40;;;;;;;78.18;36.45;;;;;;;6.28;69.60;100687.75;5081657;27;97101;-79
2023/12/06 03:41:07;;;;;;;69.68;34.63;;;;;;;6.27;70.11;100686.00;5082651;27;97141;-78
2023/12/06 03:43:34;;;;;;;72.78;34.55;;;;;;;6.15;70.23;100681.00;5084281;27;98813;-79
2023/12/06 03:46:00;;;;;;;73.68;35.67;;;;;;;6.04;70.70;100686.41;5078112;27;98809;-78
2023/12/06 03:48:27;;;;;;;73.88;34.97;;;;;;;6.03;70.98;100679.47;5083716;27;97330;-78
2023/12/06 03:50:54;;;;;;;78.97;36.50;;;;;;;6.15;70.49;100689.72;5083751;27;99646;-78
2023/12/06 03:53:21;;;;;;;77.97;35.75;;;;;;;6.35;69.12;100686.72;5082691;27;99193;-79
2023/12/06 03:55:47;;;;;;;73.93;35.30;;;;;;;6.63;68.65;100698.41;5075869;27;100948;-77
2023/12/06 03:58:16;;;;;;;76.93;35.92;;;;;;;6.51;68.65;100687.28;5078713;27;97079;-78
2023/12/06 04:00:42;;;;;;;81.70;36.95;;;;;;;6.26;70.08;100695.63;5083688;27;97181;-78
2023/12/06 04:03:08;;;;;;;79.03;37.88;;;;;;;6.38;69.97;100705.03;5086942;27;97542;-79
2023/12/06 04:05:35;;;;;;;76.20;35.67;;;;;;;6.56;69.10;100702.06;5084360;27;98884;-79
2023/12/06 04:08:03;;;;;;;81.05;36.65;;;;;;;6.12;70.03;100702.00;5085085;27;96852;-78
2023/12/06 04:10:29;;;;;;;74.82;36.85;;;;;;;6.40;70.31;100709.38;5084690;27;98622;-78
2023/12/06 04:12:55;;;;;;;73.68;35.65;;;;;;;6.27;70.21;100707.88;5083140;27;98991;-79
2023/12/06 04:15:22;;;;;;;78.22;36.45;;;;;;;6.38;70.01;100705.03;5082388;27;98775;-78
2023/12/06 04:17:48;;;;;;;75.47;36.67;;;;;;;6.35;69.60;100712.97;5073624;27;102164;-79
2023/12/06 04:20:15;;;;;;;72.68;34.95;;;;;;;5.93;71.06;100710.22;5087482;27;98349;-76
2023/12/06 04:22:41;;;;;;;77.05;36.28;;;;;;;6.07;71.68;100709.13;5081914;27;98822;-77
2023/12/06 04:25:09;;;;;;;79.93;35.08;;;;;;;6.10;71.38;100702.06;5080566;27;97823;-78
2023/12/06 04:27:36;;;;;;;76.57;34.63;;;;;;;6.07;72.08;100711.72;5075993;27;96713;-78
2023/12/06 04:30:02;;;;;;;76.68;36.55;;;;;;;6.12;71.99;100702.88;5075244;27;97844;-78
2023/12/06 04:32:29;;;;;;;73.80;35.60;;;;;;;6.06;72.14;100704.75;5077226;27;98994;-77
2023/12/06 04:34:56;;;;;;;75.88;36.10;;;;;;;6.13;71.70;100704.63;5081742;27;98991;-77
2023/12/06 04:37:23;;;;;;;82.50;37.78;;;;;;;6.10;71.41;100707.31;5076422;27;96770;-77
2023/12/06 04:39:50;;;;;;;79.13;35.63;;;;;;;6.15;71.58;100704.59;5087990;27;97555;-77
2023/12/06 04:42:18;;;;;;;75.85;35.15;;;;;;;6.20;71.49;100700.13;5080046;27;101090;-78
2023/12/06 04:44:44;;;;;;;75.15;36.00;;;;;;;6.22;71.40;100700.97;5086383;27;101284;-77
2023/12/06 04:47:10;;;;;;;72.20;34.30;;;;;;;6.17;72.07;100701.03;5078806;27;98285;-78
2023/12/06 04:49:37;;;;;;;77.68;36.08;;;;;;;6.24;71.07;100704.41;5085711;27;98236;-78
2023/12/06 04:52:04;;;;;;;75.40;36.47;;;;;;;6.12;71.68;100707.25;5076934;27;98947;-77
2023/12/06 04:54:31;;;;;;;73.78;34.78;;;;;;;6.01;72.11;100702.22;5086800;27;99348;-78
2023/12/06 04:56:56;;;;;;;78.70;36.33;;;;;;;6.17;71.82;100703.66;5082798;27;96731;-78
2023/12/06 04:59:24;;;;;;;;;;;;;;;6.13;71.86;100701.13;5084170;27;97868;-78
2023/12/06 05:01:50;;;;;;;78.70;33.53;;;;;;;6.28;71.48;100706.09;5078529;27;99147;-77
2023/12/06 05:04:17;;;;;;;73.82;33.95;;;;;;;6.27;71.10;100693.88;5074701;27;100253;-77
2023/12/06 05:06:43;;;;;;;76.43;35.35;;;;;;;6.31;71.02;100698.16;5079256;27;96981;-78
2023/12/06 05:09:10;;;;;;;74.22;34.05;;;;;;;6.16;71.00;100701.09;5079349;27;98718;-78
2023/12/06 05:11:36;;;;;;;73.18;34.88;;;;;;;6.19;71.23;100695.75;5085522;27;99042;-77
2023/12/06 05:14:03;;;;;;;80.88;37.45;;;;;;;5.98;71.94;100708.38;5086722;27;100391;-77
2023/12/06 05:16:30;;;;;;;73.97;35.75;;;;;;;5.85;72.56;100704.19;5079450;27;97535;-79
2023/12/06 05:18:57;;;;;;;77.70;36.47;;;;;;;5.96;72.68;100699.69;5082861;27;97209;-79
2023/12/06 05:21:23;;;;;;;74.32;35.42;;;;;;;6.09;72.33;100696.84;5081626;27;101218;-79
2023/12/06 05:23:51;;;;;;;74.57;35.30;;;;;;;6.08;71.67;100700.34;5087987;27;96738;-78
2023/12/06 05:26:17;;;;;;;79.20;35.67;;;;;;;6.11;72.04;100697.66;5082095;27;97393;-80
2023/12/06 05:28:43;;;;;;;77.88;36.65;;;;;;;5.97;71.80;100696.16;5084705;27;97253;-78
2023/12/06 05:31:10;;;;;;;80.88;36.92;;;;;;;6.12;71.56;100691.53;5086750;27;99376;-77
2023/12/06 05:33:38;;;;;;;78.97;36.00;;;;;;;6.21;71.34;100694.00;5085574;27;98806;-77
2023/12/06 05:36:07;;;;;;;76.05;36.42;;;;;;;6.08;71.57;100701.22;5082657;27;96941;-78
2023/12/06 05:38:33;;;;;;;76.90;36.92;;;;;;;6.09;72.02;100694.22;5088310;27;98709;-81
2023/12/06 05:41:01;;;;;;;79.57;36.17;;;;;;;6.25;71.94;100696.53;5090176;27;99028;-79
2023/12/06 05:43:27;;;;;;;75.28;34.63;;;;;;;6.23;71.67;100700.97;5083808;27;97588;-77
2023/12/06 05:45:54;;;;;;;76.47;35.95;;;;;;;6.03;72.40;100699.56;5085346;27;96700;-77
2023/12/06 05:48:20;;;;;;;77.22;36.45;;;;;;;6.17;71.79;100700.19;5084892;27;96932;-77
2023/12/06 05:50:48;;;;;;;78.43;36.47;;;;;;;6.18;71.96;100699.28;5086849;27;99191;-78
2023/12/06 05:53:15;;;;;;;83.13;36.72;;;;;;;6.37;71.13;100711.16;5083676;27;98138;-77
2023/12/06 05:55:41;;;;;;;83.85;38.33;;;;;;;6.25;71.32;100708.78;5081068;27;97069;-77
2023/12/06 05:58:08;;;;;;;75.88;36.47;;;;;;;6.25;72.15;100711.41;5089245;27;96804;-77
2023/12/06 06:00:35;;;;;;;77.68;36.17;;;;;;;6.50;70.83;100711.81;5088987;27;101373;-80
2023/12/06 06:03:02;;;;;;;78.60;36.67;;;;;;;6.61;70.31;100713.34;5085159;27;99843;-79
2023/12/06 06:05:28;;;;;;;80.22;36.13;;;;;;;6.32;71.39;100716.50;5089745;27;96688;-79
2023/12/06 06:07:57;;;;;;;77.60;37.78;;;;;;;6.37;71.55;100709.41;5084630;27;97089;-79
2023/12/06 06:10:24;;;;;;;81.63;36.75;;;;;;;6.25;72.36;100712.25;5083533;27;98896;-79
2023/12/06 06:12:50;;;;;;;74.60;34.95;;;;;;;6.42;71.10;100711.97;5080979;27;101640;-78
2023/12/06 06:15:16;;;;;;;73.78;35.33;;;;;;;6.25;72.37;100709.63;5083137;27;96812;-78
2023/12/06 06:17:43;;;;;;;82.03;37.05;;;;;;;6.19;72.16;100708.88;5084227;27;96809;-77
2023/12/06 06:20:10;;;;;;;80.15;36.15;;;;;;;6.25;72.01;100716.66;5077684;27;97859;-79
2023/12/06 06:22:37;;;;;;;77.63;35.60;;;;;;;6.13;72.30;100715.13;5085470;27;98969;-80
2023/12/06 06:25:06;;;;;;;80.15;37.20;;;;;;;6.35;71.87;100715.59;5088630;27;96796;-79
2023/12/06 06:27:32;;;;;;;72.85;35.20;;;;;;;6.35;71.80;100720.84;5083433;27;97891;-79
2023/12/06 06:29:59;;;;;;;75.15;37.05;;;;;;;6.18;72.49;100710.66;5081741;27;100658;-79
2023/12/06 06:32:25;;;;;;;77.43;35.88;;;;;;;6.07;72.52;100711.72;5085916;27;99175;-78
2023/12/06 06:34:51;;;;;;;80.78;37.25;;;;;;;6.30;72.33;100725.31;5081381;27;97656;-78
2023/12/06 06:37:18;;;;;;;71.35;35.10;;;;;;;5.95;72.93;100723.31;5080716;27;100432;-78
2023/12/06 06:39:45;;;;;;;77.38;36.50;;;;;;;6.09;73.15;100725.69;5083711;27;99042;-78
2023/12/06 06:42:12;;;;;;;80.57;37.45;;;;;;;6.23;72.73;100715.84;5079195;27;99110;-78
2023/12/06 06:44:40;;;;;;;78.07;37.00;;;;;;;6.12;72.76;100718.63;5077246;27;97209;-79
2023/12/06 06:47:07;;;;;;;78.05;36.85;;;;;;;6.04;73.26;100722.28;5083165;27;98847;-79
2023/12/06 06:49:33;;;;;;;75.22;36.50;;;;;;;6.25;72.79;100720.13;5082064;27;101176;-79
2023/12/06 06:52:00;;;;;;;82.65;36.97;;;;;;;6.52;71.44;100721.38;5079668;27;99170;-79
2023/12/06 06:54:26;;;;;;;83.47;37.78;;;;;;;6.47;71.29;100720.63;5083734;27;98897;-80
2023/12/06 06:56:52;;;;;;;73.70;34.55;;;;;;;6.23;72.08;100731.56;5086315;27;97201;-78
2023/12/06 06:59:20;;;;;;;77.03;38.03;;;;;;;6.04;72.59;100727.53;5082500;27;99020;-79
2023/12/06 07:01:47;;;;;;;77.50;36.65;;;;;;;5.99;73.17;100736.34;5083966;27;98802;-78
2023/12/06 07:04:13;;;;;;;77.68;35.70;;;;;;;5.93;73.67;100730.31;5078274;27;98763;-78
2023/12/06 07:06:40;;;;;;;83.93;36.03;;;;;;;5.88;73.12;100735.66;5081805;27;97081;-78
2023/12/06 07:09:06;;;;;;;78.18;36.03;;;;;;;6.09;73.04;100741.44;5087388;27;98822;-80
2023/12/06 07:11:33;;;;;;;77.28;36.92;;;;;;;6.01;73.28;100744.19;5087969;27;98772;-78
2023/12/06 07:14:00;;;;;;;81.47;35.65;;;;;;;6.20;72.70;100752.59;5078720;27;96811;-78
2023/12/06 07:16:28;;;;;;;83.32;37.58;;;;;;;6.08;72.71;100750.19;5083513;27;96873;-77
2023/12/06 07:18:54;;;;;;;75.50;36.70;;;;;;;6.40;72.00;100753.97;5081011;27;96962;-77
2023/12/06 07:21:20;;;;;;;86.57;37.40;;;;;;;6.53;70.96;100751.13;5084647;27;98951;-78
2023/12/06 07:23:47;;;;;;;76.35;35.53;;;;;;;6.45;72.06;100758.28;5083925;27;97109;-77
2023/12/06 07:26:13;;;;;;;78.68;35.30;;;;;;;6.58;72.15;100762.41;5080405;27;101573;-78
2023/12/06 07:28:40;;;;;;;77.00;37.33;;;;;;;6.49;71.73;100758.22;5086280;27;98807;-78
2023/12/06 07:31:06;;;;;;;82.80;36.40;;;;;;;6.58;71.36;100758.03;5079901;27;98770;-78
2023/12/06 07:33:35;;;;;;;79.57;36.50;;;;;;;6.52;71.44;100754.63;5084519;27;96777;-77
2023/12/06 07:36:01;;;;;;;83.22;38.53;;;;;;;6.48;72.13;100756.47;5078153;27;96833;-77
2023/12/06 07:38:28;;;;;;;74.53;35.30;;;;;;;6.35;72.42;100762.84;5078465;27;98811;-78
2023/12/06 07:40:53;;;;;;;82.78;37.50;;;;;;;6.51;71.45;100766.91;5089820;27;99858;-77
2023/12/06 07:43:20;;;;;;;;;;;;;;;6.56;72.00;100775.59;5077746;27;101594;-78
2023/12/06 07:45:46;;;;;;;81.20;35.88;;;;;;;6.64;71.17;100768.41;5088845;27;97053;-78
2023/12/06 07:48:13;;;;;;;75.97;35.25;;;;;;;6.73;70.78;100768.25;5080190;27;101359;-78
2023/12/06 07:50:41;;;;;;;82.43;37.05;;;;;;;6.59;71.48;100772.00;5082433;27;101140;-77
2023/12/06 07:53:07;;;;;;;80.10;37.00;;;;;;;6.91;70.15;100777.50;5074522;27;96749;-78
2023/12/06 07:55:34;;;;;;;76.95;36.60;;;;;;;6.68;70.64;100770.09;5081262;27;96790;-77
2023/12/06 07:58:00;;;;;;;77.13;38.60;;;;;;;6.58;71.06;100772.91;5079848;27;99569;-78
2023/12/06 08:00:27;;;;;;;83.93;39.92;;;;;;;6.45;71.74;100777.50;5073829;27;99875;-79
2023/12/06 08:02:53;;;;;;;82.72;39.70;;;;;;;6.25;72.81;100777.88;5082496;27;97026;-78
2023/12/06 08:05:20;;;;;;;81.85;37.67;;;;;;;6.32;72.76;100776.88;5080937;27;97083;-77
2023/12/06 08:07:49;;;;;;;82.90;38.80;;;;;;;6.46;72.43;100775.75;5077262;27;98880;-74
2023/12/06 08:10:22;;;;;;;80.28;37.92;;;;;;;6.30;72.73;100783.06;5087363;27;100039;-73
2023/12/06 08:12:48;;;;;;;77.78;37.15;;;;;;;6.28;73.14;100783.06;5086957;27;96764;-76
2023/12/06 08:15:15;;;;;;;83.78;37.88;;;;;;;6.45;72.89;100785.38;5086833;27;97120;-75
2023/12/06 08:17:42;;;;;;;81.40;37.10;;;;;;;6.29;73.59;100787.44;5080910;27;98814;-76
2023/12/06 08:20:10;;;;;;;82.18;36.90;;;;;;;6.35;72.97;100786.47;5078333;27;98856;-75
2023/12/06 08:22:36;;;;;;;75.60;36.55;;;;;;;6.44;72.41;100786.28;5077958;27;96684;-75
2023/12/06 08:25:06;;;;;;;78.13;37.92;;;;;;;6.45;71.83;100787.16;5081259;27;98647;-75
2023/12/06 08:27:34;;;;;;;73.93;35.58;;;;;;;6.53;71.79;100791.38;5083145;27;102673;-76
2023/12/06 08:30:01;;;;;;;81.25;37.28;;;;;;;6.65;71.43;100785.88;5080170;27;97654;-74
2023/12/06 08:32:28;;;;;;;87.00;37.53;;;;;;;6.81;71.15;100783.84;5077129;27;99057;-73
2023/12/06 08:34:55;;;;;;;76.93;35.40;;;;;;;6.76;70.47;100791.78;5087237;27;96784;-75
2023/12/06 08:37:21;;;;;;;81.97;37.85;;;;;;;6.58;71.35;100793.91;5080940;27;101465;-74
2023/12/06 08:39:49;;;;;;;76.43;36.13;;;;;;;6.69;71.05;100797.22;5090924;27;99101;-75
2023/12/06 08:42:17;;;;;;;78.45;35.47;;;;;;;6.45;72.16;100790.63;5086022;27;97886;-74
2023/12/06 08:44:43;;;;;;;77.82;35.13;;;;;;;6.59;71.70;100788.63;5090058;27;98719;-75
2023/12/06 08:47:10;;;;;;;73.20;35.28;;;;;;;6.59;71.99;100791.25;5090708;27;99286;-74
2023/12/06 08:49:37;;;;;;;73.40;35.05;;;;;;;6.67;71.90;100789.38;5083775;27;98856;-74
2023/12/06 08:52:04;;;;;;;80.60;36.42;;;;;;;6.61;72.21;100786.84;5082363;27;97648;-74
2023/12/06 08:54:31;;;;;;;74.75;35.28;;;;;;;6.85;71.34;100796.00;5088056;27;96769;-74
2023/12/06 08:56:58;;;;;;;76.03;35.47;;;;;;;6.83;70.99;100796.97;5087148;27;98973;-74
2023/12/06 08:59:25;;;;;;;74.95;35.20;;;;;;;6.95;70.92;100794.97;5083201;27;101419;-75
2023/12/06 09:01:52;;;;;;;71.03;34.42;;;;;;;6.73;71.41;100794.50;5084542;27;99556;-76
2023/12/06 09:04:19;;;;;;;82.95;37.05;;;;;;;6.74;71.56;100804.13;5084187;27;98373;-75
2023/12/06 09:06:45;;;;;;;73.97;36.25;;;;;;;6.87;71.23;100804.75;5081585;27;99275;-74
2023/12/06 09:09:12;;;;;;;71.07;34.65;;;;;;;6.65;71.67;100806.91;5082274;27;98892;-74
2023/12/06 09:11:38;;;;;;;75.03;35.17;;;;;;;6.68;71.91;100812.09;5084265;27;96789;-73
2023/12/06 09:14:05;;;;;;;80.47;35.72;;;;;;;7.02;70.91;100807.03;5087722;27;97077;-75
2023/12/06 09:16:33;;;;;;;76.40;36.45;;;;;;;7.17;70.06;100803.25;5078373;27;98873;-74
2023/12/06 09:18:59;;;;;;;75.40;34.40;;;;;;;7.02;71.17;100806.22;5079108;27;99221;-74
2023/12/06 09:21:26;;;;;;;72.43;33.90;;;;;;;6.58;71.89;100815.78;5081681;27;99328;-76
2023/12/06 09:23:53;;;;;;;73.05;34.53;;;;;;;6.51;72.73;100814.16;5088283;27;101641;-76
2023/12/06 09:26:20;;;;;;;73.28;33.97;;;;;;;6.58;72.69;100814.91;5085500;27;97562;-75
2023/12/06 09:28:46;;;;;;;69.43;34.55;;;;;;;6.60;72.40;100823.63;5084659;27;99316;-75
2023/12/06 09:31:13;;;;;;;62.72;32.97;;;;;;;6.69;72.67;100816.47;5089169;27;97700;-75
2023/12/06 09:33:40;;;;;;;73.30;34.50;;;;;;;6.54;72.52;100811.50;5084856;27;97074;-75
2023/12/06 09:36:08;;;;;;;71.38;34.15;;;;;;;6.75;72.21;100824.22;5086309;27;99773;-75
2023/12/06 09:38:34;;;;;;;76.05;34.13;;;;;;;6.56;72.59;100820.22;5082995;27;99138;-74
2023/12/06 09:41:01;;;;;;;72.45;34.17;;;;;;;6.95;71.32;100821.22;5081384;27;99002;-75
2023/12/06 09:43:27;;;;;;;72.50;34.47;;;;;;;6.69;71.98;100824.34;5080323;27;97934;-74
2023/12/06 09:45:54;;;;;;;72.15;34.00;;;;;;;7.00;70.94;100822.00;5083535;27;99179;-74
2023/12/06 09:48:21;;;;;;;75.47;34.50;;;;;;;6.33;73.42;100825.84;5085145;27;97942;-74
2023/12/06 09:50:48;;;;;;;74.15;34.30;;;;;;;6.42;73.99;100819.59;5086495;27;97936;-74
2023/12/06 09:53:16;;;;;;;72.40;33.72;;;;;;;6.57;73.13;100831.56;5080348;27;96928;-74
2023/12/06 09:55:42;;;;;;;72.55;34.83;;;;;;;6.77;72.84;100827.69;5082677;27;102034;-75
2023/12/06 09:58:09;;;;;;;73.90;34.83;;;;;;;6.94;71.93;100830.00;5081635;27;98752;-74
2023/12/06 10:00:36;;;;;;;68.35;35.28;;;;;;;6.91;71.41;100823.91;5090014;27;97591;-74
2023/12/06 10:03:03;;;;;;;71.47;33.92;;;;;;;6.56;73.09;100824.59;5078980;27;97275;-74
2023/12/06 10:05:30;;;;;;;73.25;34.40;;;;;;;6.52;72.35;100826.38;5080812;27;99091;-75
2023/12/06 10:07:57;;;;;;;76.43;34.13;;;;;;;7.04;71.63;100828.03;5076468;27;97744;-74
2023/12/06 10:10:24;;;;;;;73.53;34.72;;;;;;;7.10;71.17;100820.91;5083537;27;96746;-74
2023/12/06 10:12:52;;;;;;;70.90;34.75;;;;;;;6.87;71.47;100824.88;5082495;27;99748;-74
2023/12/06 10:15:20;;;;;;;73.40;34.53;;;;;;;6.86;71.68;100823.16;5083581;27;99398;-75
2023/12/06 10:17:49;;;;;;;72.53;33.80;;;;;;;6.81;71.61;100828.50;5081435;27;98850;-74
2023/12/06 10:20:17;;;;;;;69.60;34.30;;;;;;;6.56;72.46;100820.22;5083462;27;97882;-73
2023/12/06 10:22:45;;;;;;;74.13;33.08;;;;;;;6.58;72.62;100825.41;5083375;27;96942;-73
2023/12/06 10:25:13;;;;;;;77.20;36.15;;;;;;;6.93;71.66;100823.00;5078834;27;102175;-74
2023/12/06 10:27:40;;;;;;;73.03;33.63;;;;;;;6.92;71.91;100821.28;5083121;27;100205;-74
2023/12/06 10:30:08;;;;;;;72.90;36.22;;;;;;;7.10;71.24;100810.38;5079356;27;98132;-75
2023/12/06 10:32:35;;;;;;;76.53;35.53;;;;;;;7.45;69.23;100817.56;5079300;27;97439;-74
2023/12/06 10:35:05;;;;;;;73.18;33.28;;;;;;;7.26;70.17;100818.84;5083724;27;99416;-74
2023/12/06 10:37:33;;;;;;;75.97;35.25;;;;;;;7.01;70.56;100818.47;5079458;27;99884;-74
2023/12/06 10:40:09;;;;;;;69.28;33.50;;;;;;;7.14;70.53;100813.84;5083948;27;99203;-74
2023/12/06 10:42:38;;;;;;;71.93;35.10;;;;;;;7.17;70.35;100812.00;5086313;27;97165;-74
2023/12/06 10:45:06;;;;;;;74.45;34.83;;;;;;;6.99;70.97;100822.03;5077160;27;97700;-74
2023/12/06 10:47:35;;;;;;;76.07;35.90;;;;;;;7.14;70.48;100813.84;5084169;27;99430;-74
2023/12/06 10:50:03;;;;;;;67.60;33.17;;;;;;;7.31;70.16;100819.59;5078759;27;97229;-75
2023/12/06 10:52:36;;;;;;;69.43;32.28;;;;;;;7.28;70.25;100816.19;5083483;27;97286;-74
2023/12/06 10:55:03;;;;;;;68.93;33.95;;;;;;;7.14;70.07;100803.31;5081994;27;101033;-73
2023/12/06 10:57:32;;;;;;;77.75;35.38;;;;;;;7.20;70.46;100811.09;5080829;27;101580;-74
2023/12/06 11:00:00;;;;;;;71.70;33.50;;;;;;;7.32;69.82;100813.44;5080890;27;96814;-74
2023/12/06 11:02:30;;;;;;;70.65;33.60;;;;;;;7.15;70.41;100812.94;5081704;27;97675;-74
2023/12/06 11:05:05;;;;;;;65.88;33.75;;;;;;;7.04;70.88;100812.28;5083753;27;97859;-73
2023/12/06 11:07:50;;;;;;;69.50;31.67;;;;;;;7.12;71.01;100805.13;5078153;27;98880;-74
2023/12/06 11:10:34;;;;;;;73.57;34.47;;;;;;;7.41;69.79;100808.00;5080917;27;97301;-75
2023/12/06 11:13:15;;;;;;;69.90;33.55;;;;;;;7.24;70.59;100804.84;5085261;27;97125;-75
2023/12/06 11:16:08;;;;;;;73.05;32.63;;;;;;;7.08;71.14;100800.81;5078509;27;101045;-74